Time;durP1;ratioP1;P1;durP2;ratioP2;P2;SDS_P1;SDS_P2;PMS_P1;PMS_P2;Temp;Humidity;BMP_temperature;BMP_pressure;BME280_temperature;BME280_humidity;BME280_pressure;Samples;Min_cycle;Max_cycle;Signal;HPM_P1;HPM_P2
2023/09/08 00:01:55;;;;;;;10.23;6.70;;;20.20;99.90;;;;;;5022176;28;20104;-50
2023/09/08 00:04:21;;;;;;;9.70;6.82;;;20.10;99.90;;;;;;5021415;28;20098;-51
2023/09/08 00:06:46;;;;;;;11.52;7.32;;;20.00;99.90;;;;;;5021283;28;20041;-51
2023/09/08 00:09:12;;;;;;;11.63;7.80;;;20.00;99.90;;;;;;5022100;28;20374;-50
2023/09/08 00:11:38;;;;;;;9.45;7.28;;;20.00;99.90;;;;;;5021832;28;20470;-51
2023/09/08 00:14:04;;;;;;;10.60;7.47;;;20.00;99.90;;;;;;5002817;28;20037;-51
2023/09/08 00:16:30;;;;;;;10.85;7.55;;;20.00;99.90;;;;;;4994627;28;20041;-51
2023/09/08 00:18:59;;;;;;;10.50;7.75;;;20.00;99.90;;;;;;5021377;28;20033;-50
2023/09/08 00:21:25;;;;;;;9.93;7.45;;;20.00;99.90;;;;;;5021283;28;20021;-51
2023/09/08 00:23:52;;;;;;;11.75;7.55;;;20.00;99.90;;;;;;5021630;28;20022;-51
2023/09/08 00:26:18;;;;;;;13.02;7.82;;;20.00;99.90;;;;;;5021815;28;20050;-50
2023/09/08 00:28:44;;;;;;;10.98;7.57;;;;;;;;;;5019844;28;20044;-51
2023/09/08 00:31:10;;;;;;;10.32;7.68;;;20.00;99.90;;;;;;5021738;28;20032;-51
2023/09/08 00:33:35;;;;;;;10.98;7.95;;;19.90;99.90;;;;;;5021235;28;20382;-51
2023/09/08 00:36:01;;;;;;;11.05;7.88;;;19.90;99.90;;;;;;5002569;28;20038;-51
2023/09/08 00:38:27;;;;;;;10.20;7.47;;;;;;;;;;5020995;28;20840;-51
2023/09/08 00:40:53;;;;;;;8.38;7.00;;;;;;;;;;5021508;28;20025;-51
2023/09/08 00:43:19;;;;;;;10.50;7.25;;;;;;;;;;5023342;28;20057;-51
2023/09/08 00:45:46;;;;;;;11.02;7.32;;;19.80;99.90;;;;;;5006731;28;20042;-51
2023/09/08 00:48:12;;;;;;;11.38;7.47;;;19.70;99.90;;;;;;5025250;28;20028;-50
2023/09/08 00:50:39;;;;;;;8.73;7.03;;;19.50;99.90;;;;;;5024761;28;20048;-50
2023/09/08 00:53:06;;;;;;;11.50;6.95;;;19.50;99.90;;;;;;5002332;28;20034;-51
2023/09/08 00:55:32;;;;;;;8.68;6.50;;;19.50;99.90;;;;;;5002670;28;20071;-50
2023/09/08 00:57:59;;;;;;;9.80;6.82;;;19.50;99.90;;;;;;5002533;28;20060;-51
2023/09/08 01:00:27;;;;;;;10.68;7.05;;;19.40;99.90;;;;;;5002760;28;20093;-50
2023/09/08 01:02:53;;;;;;;9.63;7.25;;;19.40;99.90;;;;;;5002802;28;20060;-50
2023/09/08 01:05:21;;;;;;;7.90;6.55;;;19.40;99.90;;;;;;4985903;28;20486;-51
2023/09/08 01:07:48;;;;;;;11.63;7.10;;;19.40;99.90;;;;;;5002246;28;20150;-50
2023/09/08 01:10:15;;;;;;;9.63;6.50;;;19.30;99.90;;;;;;5002011;28;20031;-51
2023/09/08 01:12:41;;;;;;;10.35;7.53;;;19.30;99.90;;;;;;5002326;28;20061;-51
2023/09/08 01:15:07;;;;;;;14.35;6.80;;;19.30;99.90;;;;;;5002066;28;20057;-50
2023/09/08 01:17:36;;;;;;;8.38;6.88;;;19.20;99.90;;;;;;4969529;28;20383;-50
2023/09/08 01:20:11;;;;;;;8.18;6.85;;;19.30;99.90;;;;;;5002091;28;20113;-50
2023/09/08 01:22:45;;;;;;;9.00;6.60;;;19.30;99.90;;;;;;5001905;28;20481;-51
2023/09/08 01:25:24;;;;;;;9.73;7.00;;;19.30;99.90;;;;;;5023654;28;20042;-50
2023/09/08 01:27:54;;;;;;;8.50;6.60;;;19.40;99.90;;;;;;4997590;28;20515;-50
2023/09/08 01:30:23;;;;;;;9.85;6.55;;;19.40;99.90;;;;;;5014033;28;20088;-50
2023/09/08 01:32:50;;;;;;;9.63;6.00;;;19.40;99.90;;;;;;5024887;28;20021;-50
2023/09/08 01:35:16;;;;;;;8.18;6.60;;;19.50;99.90;;;;;;4997224;28;20239;-50
2023/09/08 01:37:44;;;;;;;7.63;6.50;;;19.40;99.90;;;;;;5022772;28;20112;-50
2023/09/08 01:40:10;;;;;;;11.52;7.03;;;19.40;99.90;;;;;;4957944;28;20066;-51
2023/09/08 01:42:37;;;;;;;9.77;6.88;;;19.40;99.90;;;;;;4949026;28;20034;-51
2023/09/08 01:45:04;;;;;;;9.55;7.05;;;19.30;99.90;;;;;;4983372;28;20042;-51
2023/09/08 01:47:30;;;;;;;9.40;6.78;;;19.30;99.90;;;;;;4982084;28;20038;-50
2023/09/08 01:49:56;;;;;;;9.38;6.90;;;19.30;99.90;;;;;;4982083;28;20034;-50
2023/09/08 01:52:22;;;;;;;11.77;6.90;;;19.20;99.90;;;;;;4982097;28;20031;-51
2023/09/08 01:54:47;;;;;;;9.90;7.10;;;19.20;99.90;;;;;;4948446;28;20174;-50
2023/09/08 01:57:13;;;;;;;11.18;6.82;;;19.20;99.90;;;;;;4957443;28;20406;-51
2023/09/08 01:59:39;;;;;;;10.98;6.85;;;19.10;99.90;;;;;;4949758;28;20072;-50
2023/09/08 02:02:06;;;;;;;9.85;7.28;;;19.10;99.90;;;;;;4917717;28;20454;-50
2023/09/08 02:04:32;;;;;;;12.07;7.70;;;19.10;99.90;;;;;;4949433;28;20109;-51
2023/09/08 02:06:58;;;;;;;11.10;6.60;;;19.10;99.90;;;;;;4942868;29;20074;-50
2023/09/08 02:09:31;;;;;;;9.32;6.90;;;19.00;99.90;;;;;;4943193;29;20071;-51
2023/09/08 02:11:57;;;;;;;10.50;6.97;;;19.00;99.90;;;;;;4980379;28;20084;-50
2023/09/08 02:14:23;;;;;;;11.07;7.00;;;;;;;;;;4926691;28;20034;-50
2023/09/08 02:16:49;;;;;;;11.30;6.72;;;18.60;99.90;;;;;;4991647;28;20035;-50
2023/09/08 02:19:14;;;;;;;9.10;7.22;;;18.80;99.90;;;;;;4991493;28;20057;-50
2023/09/08 02:21:40;;;;;;;7.80;6.95;;;18.90;99.90;;;;;;4991405;28;20050;-51
2023/09/08 02:24:06;;;;;;;13.80;8.20;;;18.90;99.90;;;;;;4987461;28;20037;-50
2023/09/08 02:26:33;;;;;;;11.15;7.38;;;18.90;99.90;;;;;;4974700;28;20149;-50
2023/09/08 02:28:59;;;;;;;10.13;7.22;;;18.80;99.90;;;;;;4991118;28;20065;-50
2023/09/08 02:31:26;;;;;;;9.80;7.53;;;18.80;99.90;;;;;;4991240;28;20100;-51
2023/09/08 02:33:53;;;;;;;12.02;7.90;;;18.70;99.90;;;;;;4951175;28;20065;-50
2023/09/08 02:36:25;;;;;;;10.80;7.15;;;;;;;;;;4991324;28;20397;-50
2023/09/08 02:38:54;;;;;;;10.15;7.18;;;18.80;99.90;;;;;;5001044;28;20457;-51
2023/09/08 02:41:20;;;;;;;9.95;7.45;;;18.80;99.90;;;;;;5023286;28;20026;-51
2023/09/08 02:43:46;;;;;;;11.27;7.25;;;18.80;99.90;;;;;;5022874;28;20462;-51
2023/09/08 02:46:13;;;;;;;7.63;6.13;;;18.70;99.90;;;;;;5022989;28;20045;-50
2023/09/08 02:48:39;;;;;;;8.82;6.18;;;18.60;99.90;;;;;;5022951;28;20401;-50
2023/09/08 02:51:04;;;;;;;8.02;6.90;;;18.50;99.90;;;;;;5022394;28;20041;-50
2023/09/08 02:53:30;;;;;;;14.27;6.90;;;18.40;99.90;;;;;;5003772;28;20037;-51
2023/09/08 02:55:58;;;;;;;13.35;6.80;;;18.40;99.90;;;;;;5022519;28;20028;-50
2023/09/08 02:58:24;;;;;;;10.63;6.60;;;18.70;99.90;;;;;;5022865;28;20382;-50
2023/09/08 03:00:51;;;;;;;10.07;6.85;;;18.70;99.90;;;;;;5022151;28;20432;-51
2023/09/08 03:03:18;;;;;;;11.15;7.40;;;18.70;99.90;;;;;;5022090;28;20481;-50
2023/09/08 03:05:44;;;;;;;9.82;6.25;;;18.70;99.90;;;;;;5021527;28;20041;-50
2023/09/08 03:08:10;;;;;;;12.00;7.40;;;18.70;99.90;;;;;;5004072;28;20033;-50
2023/09/08 03:10:35;;;;;;;11.95;7.38;;;18.70;99.90;;;;;;5022545;28;20425;-50
2023/09/08 03:13:02;;;;;;;10.13;7.00;;;18.70;99.90;;;;;;5020541;28;20092;-50
2023/09/08 03:15:28;;;;;;;10.20;7.75;;;18.70;99.90;;;;;;5022662;28;20373;-50
2023/09/08 03:18:00;;;;;;;11.57;8.25;;;18.40;99.90;;;;;;5022015;28;20497;-51
2023/09/08 03:20:28;;;;;;;12.75;7.22;;;18.40;99.90;;;;;;5021234;28;20509;-50
2023/09/08 03:22:54;;;;;;;11.85;7.40;;;18.40;99.90;;;;;;5022543;28;20032;-51
2023/09/08 03:25:20;;;;;;;15.73;7.93;;;18.40;99.90;;;;;;5021831;28;20037;-50
2023/09/08 03:27:46;;;;;;;13.30;7.80;;;18.40;99.90;;;;;;5021496;28;20493;-51
2023/09/08 03:30:12;;;;;;;14.40;7.38;;;18.50;99.90;;;;;;5022069;28;20108;-50
2023/09/08 03:32:38;;;;;;;9.00;6.85;;;18.40;99.90;;;;;;5003898;28;20037;-51
2023/09/08 03:35:07;;;;;;;12.50;7.40;;;18.40;99.90;;;;;;5022489;28;20031;-51
2023/09/08 03:37:34;;;;;;;16.30;7.97;;;18.40;99.90;;;;;;5022562;28;20362;-51
2023/09/08 03:40:00;;;;;;;10.45;7.97;;;18.30;99.90;;;;;;5022585;28;20029;-50
2023/09/08 03:42:26;;;;;;;13.90;9.00;;;18.30;99.90;;;;;;4987821;28;20034;-50
2023/09/08 03:44:51;;;;;;;18.60;10.05;;;18.40;99.90;;;;;;5002929;28;20084;-50
2023/09/08 03:47:17;;;;;;;16.42;9.48;;;18.30;99.90;;;;;;5003208;28;20069;-50
2023/09/08 03:49:43;;;;;;;12.65;8.70;;;18.30;99.90;;;;;;5019503;28;20033;-51
2023/09/08 03:52:09;;;;;;;13.50;7.30;;;18.40;99.90;;;;;;5022210;28;20095;-50
2023/09/08 03:54:34;;;;;;;11.13;7.43;;;18.40;99.90;;;;;;5022077;28;20659;-50
2023/09/08 03:57:00;;;;;;;14.52;8.13;;;18.40;99.90;;;;;;5022692;28;20021;-50
2023/09/08 03:59:26;;;;;;;10.90;7.47;;;18.40;99.90;;;;;;5021981;28;20466;-50
2023/09/08 04:01:51;;;;;;;11.18;8.07;;;18.30;99.90;;;;;;5019546;28;20533;-50
2023/09/08 04:04:19;;;;;;;11.05;7.15;;;18.40;99.90;;;;;;5021951;28;20053;-50
2023/09/08 04:06:45;;;;;;;15.23;8.20;;;18.30;99.90;;;;;;5021792;28;20037;-51
2023/09/08 04:09:11;;;;;;;17.95;8.13;;;18.30;99.90;;;;;;5003088;28;20036;-50
2023/09/08 04:11:37;;;;;;;11.13;8.07;;;18.30;99.90;;;;;;4956094;28;20096;-50
2023/09/08 04:14:02;;;;;;;13.27;8.13;;;18.30;99.90;;;;;;5021307;28;20112;-51
2023/09/08 04:16:29;;;;;;;12.85;7.97;;;18.30;99.90;;;;;;5021365;28;20029;-51
2023/09/08 04:18:54;;;;;;;14.68;7.68;;;18.30;99.90;;;;;;5022192;28;20157;-50
2023/09/08 04:21:20;;;;;;;17.90;8.48;;;18.30;99.90;;;;;;5025960;28;20472;-50
2023/09/08 04:23:46;;;;;;;12.70;8.40;;;18.30;99.90;;;;;;5024557;28;20036;-51
2023/09/08 04:26:13;;;;;;;11.00;7.72;;;18.30;99.90;;;;;;5025584;28;20406;-49
2023/09/08 04:28:39;;;;;;;8.98;7.53;;;18.30;99.90;;;;;;5025286;28;20036;-50
2023/09/08 04:31:04;;;;;;;14.20;8.07;;;18.30;99.90;;;;;;5024785;28;20381;-49
2023/09/08 04:33:30;;;;;;;11.43;7.97;;;18.60;99.90;;;;;;5024756;28;20087;-49
2023/09/08 04:35:56;;;;;;;18.67;8.15;;;18.30;99.90;;;;;;5006329;28;20404;-50
2023/09/08 04:38:22;;;;;;;17.83;7.75;;;18.20;99.90;;;;;;5025589;28;20521;-49
2023/09/08 04:40:48;;;;;;;12.10;7.80;;;18.30;99.90;;;;;;5025252;28;20033;-50
2023/09/08 04:43:13;;;;;;;12.52;7.85;;;18.30;99.90;;;;;;5025239;28;20359;-49
2023/09/08 04:45:39;;;;;;;12.60;7.97;;;18.60;99.90;;;;;;5022780;28;20077;-49
2023/09/08 04:48:05;;;;;;;13.88;8.77;;;18.40;99.90;;;;;;5024391;28;20458;-49
2023/09/08 04:50:31;;;;;;;12.88;7.57;;;18.40;99.90;;;;;;5024489;28;20029;-50
2023/09/08 04:52:57;;;;;;;10.98;8.23;;;18.70;99.90;;;;;;5024277;28;20036;-50
2023/09/08 04:55:23;;;;;;;11.25;7.03;;;18.50;99.90;;;;;;5006637;28;20120;-50
2023/09/08 04:57:49;;;;;;;9.02;7.45;;;18.50;99.90;;;;;;5025011;28;20385;-50
2023/09/08 05:00:15;;;;;;;10.82;7.85;;;18.40;99.90;;;;;;5024770;28;20041;-50
2023/09/08 05:02:40;;;;;;;12.00;7.50;;;18.70;99.90;;;;;;5025289;28;20091;-50
2023/09/08 05:05:07;;;;;;;13.65;8.18;;;18.40;99.90;;;;;;5024429;28;20030;-50
2023/09/08 05:07:32;;;;;;;12.80;7.47;;;18.40;99.90;;;;;;5005825;28;20049;-50
2023/09/08 05:09:58;;;;;;;10.07;7.60;;;18.40;99.90;;;;;;5024995;28;20034;-51
2023/09/08 05:12:24;;;;;;;10.05;7.85;;;18.50;99.90;;;;;;5024256;28;20091;-50
2023/09/08 05:14:55;;;;;;;10.82;7.68;;;18.60;99.90;;;;;;5024243;28;20044;-51
2023/09/08 05:17:21;;;;;;;9.40;8.00;;;18.70;99.90;;;;;;5023919;28;20029;-51
2023/09/08 05:19:47;;;;;;;18.63;7.70;;;18.70;99.90;;;;;;5005408;28;20108;-49
2023/09/08 05:22:13;;;;;;;13.20;7.97;;;18.90;99.90;;;;;;4972774;28;20041;-49
2023/09/08 05:24:38;;;;;;;11.23;8.75;;;18.90;99.90;;;;;;5024359;28;20464;-49
2023/09/08 05:27:04;;;;;;;10.68;8.13;;;18.90;99.90;;;;;;5024489;28;20524;-50
2023/09/08 05:29:30;;;;;;;10.25;8.63;;;19.00;99.90;;;;;;5024678;28;20121;-49
2023/09/08 05:31:56;;;;;;;14.05;9.10;;;19.00;99.90;;;;;;5024329;28;20034;-49
2023/09/08 05:34:21;;;;;;;14.23;10.05;;;19.20;99.90;;;;;;5023826;28;20057;-49
2023/09/08 05:36:47;;;;;;;19.70;10.25;;;19.30;99.90;;;;;;5023688;28;20097;-49
2023/09/08 05:39:15;;;;;;;12.43;9.98;;;19.60;99.90;;;;;;5023485;28;20040;-49
2023/09/08 05:41:40;;;;;;;17.25;10.23;;;19.40;99.90;;;;;;5023920;28;20021;-49
2023/09/08 05:44:06;;;;;;;16.33;11.32;;;19.60;99.90;;;;;;5024288;28;20083;-49
2023/09/08 05:46:32;;;;;;;14.95;10.70;;;19.60;99.90;;;;;;5024463;28;20132;-49
2023/09/08 05:48:58;;;;;;;20.30;11.88;;;19.80;99.90;;;;;;5024194;28;20050;-49
2023/09/08 05:51:24;;;;;;;19.90;10.75;;;19.70;99.90;;;;;;5023761;28;20072;-49
2023/09/08 05:53:49;;;;;;;17.10;11.43;;;19.90;99.90;;;;;;5023667;28;20033;-50
2023/09/08 05:56:15;;;;;;;23.70;11.13;;;19.70;99.90;;;;;;5023138;28;20438;-48
2023/09/08 05:58:41;;;;;;;17.63;11.77;;;19.70;99.90;;;;;;5023748;28;20493;-49
2023/09/08 06:01:07;;;;;;;15.63;11.65;;;19.90;99.90;;;;;;5024045;28;20105;-49
2023/09/08 06:03:32;;;;;;;18.63;13.13;;;19.80;99.90;;;;;;4997037;28;20043;-49
2023/09/08 06:05:58;;;;;;;20.85;12.52;;;19.90;99.90;;;;;;5023795;28;20167;-49
2023/09/08 06:08:24;;;;;;;17.30;13.27;;;20.10;99.90;;;;;;5034521;28;20033;-49
2023/09/08 06:11:12;;;;;;;17.40;12.63;;;19.90;99.90;;;;;;5012772;28;20490;-48
2023/09/08 06:13:37;;;;;;;20.20;14.00;;;20.00;99.90;;;;;;5012749;28;20048;-48
2023/09/08 06:16:03;;;;;;;18.00;13.05;;;20.20;99.90;;;;;;5012894;28;20046;-49
2023/09/08 06:18:30;;;;;;;15.93;13.52;;;20.30;99.90;;;;;;5012705;28;20065;-49
2023/09/08 06:20:56;;;;;;;16.73;12.98;;;20.30;99.90;;;;;;5012172;28;20159;-49
2023/09/08 06:23:22;;;;;;;15.88;13.27;;;20.60;99.90;;;;;;5012547;28;20081;-49
2023/09/08 06:25:48;;;;;;;15.43;12.18;;;20.80;99.90;;;;;;5011561;28;20136;-49
2023/09/08 06:28:14;;;;;;;22.90;15.38;;;21.00;99.90;;;;;;5010139;28;20081;-49
2023/09/08 06:30:41;;;;;;;16.40;13.82;;;21.20;99.90;;;;;;4992898;28;20494;-49
2023/09/08 06:33:10;;;;;;;17.50;14.10;;;21.40;99.90;;;;;;4992747;28;20505;-49
2023/09/08 06:35:37;;;;;;;17.15;13.15;;;;;;;;;;4992648;28;20125;-49
2023/09/08 06:38:02;;;;;;;18.42;13.38;;;22.10;99.90;;;;;;4992816;28;20525;-49
2023/09/08 06:40:31;;;;;;;15.88;14.15;;;22.20;99.90;;;;;;4975874;28;20046;-49
2023/09/08 06:42:57;;;;;;;16.98;13.88;;;22.30;99.90;;;;;;5010637;28;20096;-49
2023/09/08 06:45:23;;;;;;;20.20;14.98;;;22.40;99.90;;;;;;5014427;28;20042;-49
2023/09/08 06:47:50;;;;;;;17.88;14.13;;;22.60;99.90;;;;;;5014237;28;20038;-49
2023/09/08 06:50:16;;;;;;;16.20;14.40;;;22.90;99.90;;;;;;5014227;28;20428;-49
2023/09/08 06:52:42;;;;;;;17.55;15.23;;;;;;;;;;5014118;28;20117;-49
2023/09/08 06:55:09;;;;;;;15.20;13.65;;;22.70;99.90;;;;;;5014368;28;20117;-49
2023/09/08 06:57:35;;;;;;;21.65;14.27;;;22.80;99.90;;;;;;5014037;28;20056;-49
2023/09/08 07:00:01;;;;;;;18.83;15.20;;;23.00;99.90;;;;;;4995797;28;20486;-49
2023/09/08 07:02:27;;;;;;;19.92;15.40;;;22.80;99.90;;;;;;4979600;28;20050;-49
2023/09/08 07:04:52;;;;;;;20.52;15.02;;;23.10;99.90;;;;;;5013890;28;20129;-49
2023/09/08 07:07:20;;;;;;;21.55;15.90;;;23.10;99.90;;;;;;5014193;28;20037;-49
2023/09/08 07:09:46;;;;;;;22.73;16.75;;;23.10;99.90;;;;;;5014192;28;20053;-49
2023/09/08 07:12:11;;;;;;;20.10;14.27;;;23.20;99.90;;;;;;4995784;28;20498;-48
2023/09/08 07:14:38;;;;;;;18.88;12.88;;;23.40;99.90;;;;;;5013658;28;20065;-49
2023/09/08 07:17:03;;;;;;;21.42;13.32;;;23.80;99.90;;;;;;5013803;28;20497;-49
2023/09/08 07:19:29;;;;;;;20.60;14.10;;;23.80;99.90;;;;;;4995577;28;20125;-49
2023/09/08 07:21:55;;;;;;;16.77;12.10;;;24.00;99.90;;;;;;5013687;28;20103;-49
2023/09/08 07:24:21;;;;;;;16.67;9.82;;;24.20;99.90;;;;;;5013692;28;20036;-49
2023/09/08 07:26:47;;;;;;;11.32;8.80;;;24.50;99.90;;;;;;5011830;28;20550;-48
2023/09/08 07:29:13;;;;;;;12.38;9.23;;;;;;;;;;5013606;28;20038;-49
2023/09/08 07:31:39;;;;;;;10.73;7.13;;;;;;;;;;5013632;28;20481;-49
2023/09/08 07:34:05;;;;;;;15.82;8.82;;;24.80;99.90;;;;;;4995462;28;20044;-49
2023/09/08 07:36:31;;;;;;;12.98;10.07;;;;;;;;;;5013405;28;20030;-49
2023/09/08 07:38:58;;;;;;;14.50;8.70;;;;;;;;;;5011822;28;20046;-49
2023/09/08 07:41:27;;;;;;;13.15;8.95;;;25.20;99.90;;;;;;5015353;28;20173;-50
2023/09/08 07:43:53;;;;;;;13.00;8.70;;;;;;;;;;5033417;28;20040;-48
2023/09/08 07:46:19;;;;;;;12.32;9.02;;;25.20;99.90;;;;;;5031377;28;20046;-49
2023/09/08 07:48:44;;;;;;;12.65;8.68;;;25.30;99.90;;;;;;5032975;28;20048;-49
2023/09/08 07:51:11;;;;;;;13.38;8.93;;;;;;;;;;5033350;28;20116;-49
2023/09/08 07:53:37;;;;;;;12.98;8.43;;;;;;;;;;5033395;28;20128;-49
2023/09/08 07:56:04;;;;;;;14.98;8.82;;;;;;;;;;5037055;28;20041;-49
2023/09/08 07:58:30;;;;;;;9.70;7.88;;;;;;;;;;5037278;28;20033;-49
2023/09/08 08:00:56;;;;;;;11.40;8.27;;;;;;;;;;5037418;28;20087;-49
2023/09/08 08:03:22;;;;;;;10.93;8.05;;;26.30;99.60;;;;;;5037226;28;20440;-49
2023/09/08 08:05:47;;;;;;;11.73;7.63;;;26.40;99.90;;;;;;5037439;28;20065;-49
2023/09/08 08:08:13;;;;;;;12.57;7.18;;;26.60;99.60;;;;;;5036819;28;20512;-49
2023/09/08 08:10:41;;;;;;;12.95;7.70;;;26.70;99.50;;;;;;5036955;28;20033;-49
2023/09/08 08:13:07;;;;;;;8.32;7.07;;;26.70;99.30;;;;;;5036828;28;20034;-50
2023/09/08 08:15:37;;;;;;;10.52;6.03;;;26.70;99.70;;;;;;5036669;28;20516;-49
2023/09/08 08:18:05;;;;;;;10.38;6.57;;;26.90;98.40;;;;;;5035844;28;20025;-50
2023/09/08 08:20:34;;;;;;;10.70;6.70;;;;;;;;;;5035457;28;20133;-50
2023/09/08 08:23:04;;;;;;;11.75;6.22;;;27.50;98.20;;;;;;5036084;28;20029;-49
2023/09/08 08:25:30;;;;;;;8.55;5.60;;;;;;;;;;5035392;28;20048;-50
2023/09/08 08:27:58;;;;;;;9.75;6.22;;;;;;;;;;5035420;28;20394;-50
2023/09/08 08:30:24;;;;;;;8.02;5.82;;;28.10;99.90;;;;;;5035497;28;20044;-49
2023/09/08 08:32:53;;;;;;;9.77;6.25;;;;;;;;;;5036402;28;20033;-49
2023/09/08 08:35:19;;;;;;;8.00;5.90;;;28.70;99.90;;;;;;5036380;28;20041;-51
2023/09/08 08:37:45;;;;;;;10.43;6.22;;;;;;;;;;5036269;28;20033;-49
2023/09/08 08:40:12;;;;;;;9.60;5.45;;;29.30;99.90;;;;;;5036512;28;20111;-49
2023/09/08 08:42:39;;;;;;;9.82;5.30;;;29.10;97.00;;;;;;5036398;28;20029;-49
2023/09/08 08:45:05;;;;;;;8.40;5.78;;;29.70;97.00;;;;;;5036681;28;20025;-49
2023/09/08 08:47:31;;;;;;;9.40;4.97;;;;;;;;;;5001867;28;20045;-49
2023/09/08 08:49:58;;;;;;;8.82;5.72;;;30.60;99.90;;;;;;5036001;28;20556;-49
2023/09/08 08:52:26;;;;;;;9.40;6.00;;;;;;;;;;5036009;28;20428;-49
2023/09/08 08:54:51;;;;;;;12.57;5.22;;;30.60;94.90;;;;;;5036543;28;20026;-49
2023/09/08 08:57:17;;;;;;;9.05;5.40;;;30.70;95.50;;;;;;5036063;28;20358;-49
2023/09/08 08:59:45;;;;;;;5.93;4.07;;;30.70;95.00;;;;;;5036372;28;20060;-50
2023/09/08 09:02:12;;;;;;;6.38;4.78;;;31.10;95.30;;;;;;5017225;28;20034;-49
2023/09/08 09:04:38;;;;;;;8.57;4.13;;;;;;;;;;5016883;28;20064;-49
2023/09/08 09:07:06;;;;;;;9.50;4.32;;;31.10;93.30;;;;;;5033941;28;20392;-49
2023/09/08 09:09:32;;;;;;;7.40;4.72;;;31.50;93.60;;;;;;5035707;28;20025;-50
2023/09/08 09:11:58;;;;;;;5.47;3.97;;;31.30;93.50;;;;;;5035747;28;20045;-49
2023/09/08 09:14:24;;;;;;;6.93;4.40;;;31.50;99.90;;;;;;5017508;28;20054;-49
2023/09/08 09:16:50;;;;;;;6.97;4.50;;;30.90;99.90;;;;;;5035586;28;20079;-49
2023/09/08 09:19:31;;;;;;;8.23;3.95;;;31.30;99.90;;;;;;5035658;28;20038;-50
2023/09/08 09:21:58;;;;;;;8.82;4.10;;;32.00;96.10;;;;;;5035508;28;20504;-49
2023/09/08 09:24:36;;;;;;;7.85;4.40;;;;;;;;;;5035717;28;20038;-50
2023/09/08 09:27:05;;;;;;;8.43;4.95;;;31.00;91.50;;;;;;5035291;28;20064;-49
2023/09/08 09:29:31;;;;;;;6.80;4.20;;;30.90;92.00;;;;;;5035223;28;20049;-49
2023/09/08 09:32:03;;;;;;;6.18;4.25;;;31.40;91.90;;;;;;5035451;28;20038;-50
2023/09/08 09:34:29;;;;;;;9.50;4.65;;;30.90;91.60;;;;;;5001086;28;20057;-49
2023/09/08 09:36:55;;;;;;;6.65;4.25;;;31.00;92.00;;;;;;5035189;28;20043;-50
2023/09/08 09:39:23;;;;;;;7.78;4.07;;;31.60;91.90;;;;;;5035449;28;20116;-49
2023/09/08 09:41:53;;;;;;;6.82;4.40;;;30.90;91.10;;;;;;5035311;28;20040;-50
2023/09/08 09:44:19;;;;;;;6.93;3.92;;;31.00;91.10;;;;;;5035144;28;20052;-49
2023/09/08 09:46:46;;;;;;;7.22;4.15;;;31.40;91.70;;;;;;5034781;28;20100;-50
2023/09/08 09:49:13;;;;;;;5.47;3.58;;;31.20;90.80;;;;;;5035367;28;20083;-50
2023/09/08 09:51:50;;;;;;;5.70;3.97;;;31.50;90.90;;;;;;4993120;28;20101;-49
2023/09/08 09:54:16;;;;;;;6.55;4.22;;;31.40;90.90;;;;;;4991257;28;20044;-49
2023/09/08 09:56:43;;;;;;;8.93;4.03;;;;;;;;;;4993315;28;20066;-51
2023/09/08 09:59:12;;;;;;;9.23;4.38;;;32.10;99.90;;;;;;4993307;28;20030;-49
2023/09/08 10:01:39;;;;;;;6.65;5.50;;;31.60;91.30;;;;;;4992988;28;20049;-49
2023/09/08 10:04:06;;;;;;;4.97;4.05;;;31.60;91.00;;;;;;4993193;28;20031;-49
2023/09/08 10:06:36;;;;;;;6.57;4.65;;;31.90;90.60;;;;;;4993210;28;20050;-49
2023/09/08 10:09:04;;;;;;;5.65;4.53;;;32.10;90.50;;;;;;4976777;28;20044;-49
2023/09/08 10:11:35;;;;;;;4.95;4.22;;;;;;;;;;4993265;28;20061;-50
2023/09/08 10:14:02;;;;;;;9.05;4.00;;;32.60;90.30;;;;;;4992770;28;20429;-50
2023/09/08 10:16:32;;;;;;;8.93;3.80;;;31.70;90.30;;;;;;4975700;28;20053;-50
2023/09/08 10:18:59;;;;;;;8.48;4.32;;;32.40;90.40;;;;;;4992981;28;20030;-49
2023/09/08 10:21:27;;;;;;;7.18;4.55;;;32.50;93.90;;;;;;4993312;28;20045;-50
2023/09/08 10:24:09;;;;;;;9.88;4.78;;;;;;;;;;5034296;28;20041;-50
2023/09/08 10:26:35;;;;;;;;;;;;;;;;;;5000461;28;20176;-50
2023/09/08 10:29:02;;;;;;;5.25;3.90;;;31.00;89.10;;;;;;5034185;28;19947;-50
2023/09/08 10:31:28;;;;;;;7.07;4.30;;;;;;;;;;5034492;28;20029;-50
2023/09/08 10:33:57;;;;;;;8.18;4.47;;;31.80;89.90;;;;;;5033793;28;20108;-50
2023/09/08 10:36:24;;;;;;;5.57;4.60;;;31.60;90.80;;;;;;5034347;28;20040;-50
2023/09/08 10:38:51;;;;;;;6.40;4.88;;;;;;;;;;5015882;28;20045;-51
2023/09/08 10:41:17;;;;;;;6.90;4.78;;;32.70;94.20;;;;;;5033154;28;20055;-50
2023/09/08 10:43:54;;;;;;;6.15;4.82;;;32.20;89.30;;;;;;5034043;28;20500;-50
2023/09/08 10:46:27;;;;;;;9.40;4.72;;;;;;;;;;5034094;28;20041;-49
2023/09/08 10:48:54;;;;;;;7.57;6.28;;;33.10;93.60;;;;;;5033808;28;20116;-51
2023/09/08 10:51:22;;;;;;;8.07;4.22;;;33.60;93.40;;;;;;5033907;28;20033;-50
2023/09/08 10:53:49;;;;;;;4.47;3.63;;;33.20;91.90;;;;;;5033746;28;20068;-50
2023/09/08 10:56:16;;;;;;;6.55;3.92;;;32.60;88.70;;;;;;4992369;28;20130;-49
2023/09/08 10:58:45;;;;;;;9.00;4.75;;;33.10;89.70;;;;;;4992495;28;20124;-50
2023/09/08 11:01:16;;;;;;;7.85;3.53;;;33.00;89.10;;;;;;4960130;28;20089;-50
2023/09/08 11:03:42;;;;;;;8.38;3.72;;;;;;;;;;4992320;28;20057;-50
2023/09/08 11:06:09;;;;;;;6.10;3.92;;;;;;;;;;4992252;28;20127;-50
2023/09/08 11:08:39;;;;;;;5.57;3.38;;;;;;;;;;4992268;28;20058;-50
2023/09/08 11:11:06;;;;;;;5.15;3.88;;;33.00;88.20;;;;;;4992004;28;20096;-50
2023/09/08 11:13:31;;;;;;;5.80;2.75;;;32.90;89.40;;;;;;4992279;28;20121;-50
2023/09/08 11:15:57;;;;;;;4.85;3.25;;;32.30;88.00;;;;;;4991816;28;20121;-50
2023/09/08 11:18:30;;;;;;;7.53;4.07;;;32.30;88.60;;;;;;4991985;28;20565;-50
2023/09/08 11:20:57;;;;;;;5.57;4.00;;;32.10;89.00;;;;;;4991848;28;20077;-51
2023/09/08 11:23:23;;;;;;;6.72;3.70;;;32.60;88.80;;;;;;4992009;28;20088;-49
2023/09/08 11:25:51;;;;;;;8.05;3.83;;;32.50;88.00;;;;;;4991745;28;20038;-49
2023/09/08 11:28:17;;;;;;;5.43;3.33;;;;;;;;;;5030259;28;20045;-51
2023/09/08 11:30:46;;;;;;;4.22;3.28;;;;;;;;;;5032123;28;20040;-51
2023/09/08 11:33:16;;;;;;;4.18;3.33;;;;;;;;;;5033223;28;20030;-50
2023/09/08 11:35:45;;;;;;;8.25;3.58;;;;;;;;;;5029629;28;20107;-51
2023/09/08 11:38:11;;;;;;;5.50;2.95;;;32.90;86.50;;;;;;5033045;28;20041;-51
2023/09/08 11:40:37;;;;;;;9.10;3.53;;;;;;;;;;5031783;28;20033;-50
2023/09/08 11:43:04;;;;;;;6.95;3.35;;;32.70;87.00;;;;;;5032397;28;20375;-51
2023/09/08 11:45:33;;;;;;;5.07;3.63;;;32.60;86.90;;;;;;5032762;28;20034;-51
2023/09/08 11:47:59;;;;;;;7.30;3.75;;;32.60;87.40;;;;;;5014644;28;20493;-52
2023/09/08 11:50:25;;;;;;;5.55;3.33;;;;;;;;;;5033088;28;20037;-50
2023/09/08 11:52:52;;;;;;;6.07;4.78;;;;;;;;;;5032533;28;20026;-50
2023/09/08 11:55:19;;;;;;;6.60;4.57;;;;;;;;;;5033283;28;20474;-51
2023/09/08 11:57:50;;;;;;;6.47;4.18;;;32.80;85.90;;;;;;5032972;28;20473;-51
2023/09/08 12:00:20;;;;;;;8.20;4.50;;;;;;;;;;5014809;28;20041;-51
2023/09/08 12:02:46;;;;;;;5.83;3.53;;;33.00;99.90;;;;;;5032332;28;20033;-51
2023/09/08 12:05:32;;;;;;;7.63;4.18;;;32.70;86.40;;;;;;5033131;28;20329;-51
2023/09/08 12:07:58;;;;;;;6.05;4.25;;;32.70;87.00;;;;;;5032637;28;20041;-51
2023/09/08 12:10:25;;;;;;;7.40;4.10;;;32.90;88.50;;;;;;5032851;28;20030;-51
2023/09/08 12:12:59;;;;;;;7.70;4.88;;;32.70;87.20;;;;;;5033084;28;20493;-51
2023/09/08 12:15:40;;;;;;;8.07;4.30;;;32.60;87.40;;;;;;5033375;28;20102;-51
2023/09/08 12:18:09;;;;;;;6.32;3.67;;;32.80;87.40;;;;;;5032770;28;20489;-51
2023/09/08 12:20:36;;;;;;;6.72;3.83;;;33.00;89.00;;;;;;5032961;28;20034;-51
2023/09/08 12:23:04;;;;;;;6.20;4.13;;;33.00;87.90;;;;;;5032960;28;20120;-51
2023/09/08 12:25:34;;;;;;;7.70;3.83;;;;;;;;;;4998026;28;20519;-51
2023/09/08 12:28:01;;;;;;;6.75;4.18;;;;;;;;;;5032677;28;20126;-51
2023/09/08 12:30:32;;;;;;;8.55;4.15;;;33.10;86.70;;;;;;5032618;28;20044;-51
2023/09/08 12:32:59;;;;;;;;;;;33.00;86.80;;;;;;5033588;28;20037;-51
2023/09/08 12:35:25;;;;;;;7.35;3.65;;;32.20;89.30;;;;;;5032759;28;20376;-51
2023/09/08 12:37:57;;;;;;;4.75;3.45;;;;;;;;;;5032643;28;20029;-51
2023/09/08 12:40:24;;;;;;;7.40;3.80;;;31.60;99.90;;;;;;5035870;28;20116;-51
2023/09/08 12:42:50;;;;;;;5.93;4.15;;;31.80;98.40;;;;;;5036317;28;20061;-51
2023/09/08 12:45:16;;;;;;;7.45;3.80;;;32.20;96.80;;;;;;5036308;28;20065;-51
2023/09/08 12:47:43;;;;;;;6.82;3.92;;;31.90;96.80;;;;;;5018091;28;20049;-51
2023/09/08 12:50:09;;;;;;;5.07;3.53;;;31.80;93.50;;;;;;5001479;28;20041;-51
2023/09/08 12:52:35;;;;;;;6.85;3.65;;;32.00;91.20;;;;;;5036177;28;20033;-51
2023/09/08 12:55:01;;;;;;;6.13;3.33;;;32.10;94.70;;;;;;5035268;28;20475;-51